MHRO

Details ICAO MHRO (RTB)
Name Roatan
Region Honduras
Timezone Unknown
Plans Departing 189
Arriving 219
Stats Elevation 18 ft / 5 m (AMSL)
Location 16.316600° -86.523400°
Runways 1
Magnetic Variation 1.765° W
Sunrise 2020-07-12 11:22:05 UTC / 2020-07-12 11:22:05 Local
Sunset 2020-07-13 00:23:38 UTC / 2020-07-13 00:23:38 Local
Advertisement - Login to hide

Runways

ID Width Length Bearing (true/mag) Surface Threshold Overrun Markings Lighting
07 148 ft / 45 m 7,672 ft / 2,338 m 65.02° / 66.78° ASPHALT 518 ft / 158 m 0 ft / 0 m PREC-APP EDGE THRESHOLD
25 148 ft / 45 m 7,672 ft / 2,338 m 245.02° / 246.79° ASPHALT 0 ft / 0 m 0 ft / 0 m PREC-APP EDGE THRESHOLD

Map

Weather


0- 5 10 15 20 25 30 35+ Temperature / °C

Clouds and Precipitation
Forecast for 2020-07-12 18:00 UTC. Updated 3 hours ago

Ground ~20,000 ft ~40,000 ft Winds

METAR

Not found

TAF

TAF MHRO 121605Z 1218/1318 09016KT 9999 FEW022 TX31/1218Z TN27/1312Z PROB30 1221/1223 8000 VCSH SCT026TCU SCT090 BECMG 1303/1305 9999 NSW FEW025

Frequencies

Tower 118.10 MHz Roatan Tower
Ground 121.60 MHz Roatan Ground
Warning: Do not use this data for real-world aviation or navigation. No guarantee of current accuracy is given.